Terminal Aerodrome Forecast
Issued by NWS Wichita, KS

Home | Current Version | Previous Version | Graphics & Text | Print | Product List | Glossary On
Versions: 1 2 3 4 5 6 7 8 9 10 11 12 13 14 15 16 17 18 19
000
FTUS43 KICT 301546 AAC
TAFICT
TAF AMD
KICT 301546Z 3016/3112 09006KT 4SM RA BR FEW015 BKN060 OVC110
      TEMPO 3016/3017 P6SM -RA SCT080 BKN100
     FM301730 11008KT P6SM BKN120
     FM310000 12007KT P6SM SCT250=

USA.gov is the U.S. government's official web portal to all federal, state and local government web resources and services.